Time;durP1;ratioP1;P1;durP2;ratioP2;P2;SDS_P1;SDS_P2;PMS_P1;PMS_P2;Temp;Humidity;BMP_temperature;BMP_pressure;BME280_temperature;BME280_humidity;BME280_pressure;Samples;Min_cycle;Max_cycle;Signal;HPM_P1;HPM_P2
2022/04/13 00:00:18;;;;;;;6.13;4.55;;;;;;;;;;10266737;28;20083;-64
2022/04/13 00:05:16;;;;;;;6.28;4.38;;;;;;;;;;10266245;28;20077;-63
2022/04/13 00:10:15;;;;;;;6.90;4.68;;;;;;;;;;10265823;28;20052;-64
2022/04/13 00:15:14;;;;;;;6.25;4.65;;;;;;;;;;10264522;28;20079;-64
2022/04/13 00:20:13;;;;;;;3.90;3.50;;;;;;;;;;10263433;28;20075;-64
2022/04/13 00:25:11;;;;;;;4.72;4.10;;;;;;;;;;10262972;28;20088;-64
2022/04/13 00:30:10;;;;;;;5.68;4.38;;;;;;;;;;10264508;28;20084;-64
2022/04/13 00:35:10;;;;;;;5.72;3.67;;;;;;;;;;10266492;28;20044;-64
2022/04/13 00:40:09;;;;;;;5.55;3.90;;;;;;;;;;10265869;28;20084;-64
2022/04/13 00:45:08;;;;;;;3.50;3.20;;;;;;;;;;10265008;28;20092;-64
2022/04/13 00:50:06;;;;;;;4.35;3.85;;;;;;;;;;10266400;28;20076;-64
2022/04/13 00:55:08;;;;;;;5.20;4.22;;;;;;;;;;10265620;28;20037;-64
2022/04/13 01:00:09;;;;;;;5.82;3.70;;;;;;;;;;10275597;28;20076;-64
2022/04/13 01:05:08;;;;;;;5.00;3.45;;;;;;;;;;10275186;28;20151;-64
2022/04/13 01:10:09;;;;;;;7.53;4.57;;;;;;;;;;10274685;28;20053;-64
2022/04/13 01:15:08;;;;;;;7.28;3.83;;;;;;;;;;10265810;28;20069;-64
2022/04/13 01:20:07;;;;;;;3.95;3.55;;;;;;;;;;10265636;28;20083;-64
2022/04/13 01:25:07;;;;;;;4.32;3.70;;;;;;;;;;10268954;28;20088;-64
2022/04/13 01:30:07;;;;;;;4.10;3.70;;;;;;;;;;10273671;28;20041;-64
2022/04/13 01:35:06;;;;;;;5.32;4.05;;;;;;;;;;10274038;28;20049;-65
2022/04/13 01:40:04;;;;;;;5.93;4.15;;;;;;;;;;10273555;28;20095;-65
2022/04/13 01:45:04;;;;;;;11.48;6.45;;;;;;;;;;10272948;28;20092;-64
2022/04/13 01:50:03;;;;;;;11.50;7.22;;;;;;;;;;10273141;28;20521;-65
2022/04/13 01:55:01;;;;;;;9.05;7.68;;;;;;;;;;10272133;28;20069;-65
2022/04/13 01:59:59;;;;;;;12.43;8.75;;;;;;;;;;10267228;28;20540;-65
2022/04/13 02:04:59;;;;;;;12.02;8.30;;;;;;;;;;10266105;28;20079;-65
2022/04/13 02:09:58;;;;;;;8.88;6.85;;;;;;;;;;10266171;28;20111;-65
2022/04/13 02:14:56;;;;;;;10.48;7.05;;;;;;;;;;10263675;28;20064;-64
2022/04/13 02:19:54;;;;;;;9.80;7.07;;;;;;;;;;10272141;28;20176;-64
2022/04/13 02:24:53;;;;;;;9.10;6.65;;;;;;;;;;10272293;28;20083;-65
2022/04/13 02:29:52;;;;;;;7.28;6.25;;;;;;;;;;10271700;28;20512;-65
2022/04/13 02:34:50;;;;;;;9.25;7.50;;;;;;;;;;10270685;28;20064;-65
2022/04/13 02:39:48;;;;;;;10.18;6.78;;;;;;;;;;10271561;28;20473;-65
2022/04/13 02:44:48;;;;;;;8.48;6.85;;;;;;;;;;10271394;28;20095;-64
2022/04/13 02:49:48;;;;;;;9.18;7.10;;;;;;;;;;10270576;28;20069;-64
2022/04/13 02:54:46;;;;;;;8.25;7.00;;;;;;;;;;10269288;28;20048;-64
2022/04/13 02:59:46;;;;;;;10.15;7.60;;;;;;;;;;10270959;28;20072;-64
2022/04/13 03:04:46;;;;;;;10.82;8.15;;;;;;;;;;10269980;28;20084;-65
2022/04/13 03:09:45;;;;;;;10.95;8.15;;;;;;;;;;10270554;28;20056;-64
2022/04/13 03:14:43;;;;;;;9.38;7.88;;;;;;;;;;10270669;28;20052;-64
2022/04/13 03:19:41;;;;;;;16.70;9.02;;;;;;;;;;10269380;28;20062;-64
2022/04/13 03:24:41;;;;;;;14.77;8.57;;;;;;;;;;10267790;28;20497;-65
2022/04/13 03:29:39;;;;;;;11.45;7.55;;;;;;;;;;10267958;28;20056;-65
2022/04/13 03:34:37;;;;;;;11.43;8.15;;;;;;;;;;10260366;28;20102;-65
2022/04/13 03:39:36;;;;;;;20.85;15.57;;;;;;;;;;10268330;28;20485;-65
2022/04/13 03:44:35;;;;;;;15.05;13.25;;;;;;;;;;10269100;28;20486;-65
2022/04/13 03:49:33;;;;;;;10.45;7.22;;;;;;;;;;10260865;28;20056;-65
2022/04/13 03:54:32;;;;;;;8.88;7.13;;;;;;;;;;10262840;28;20067;-65
2022/04/13 03:59:30;;;;;;;7.50;5.97;;;;;;;;;;10267851;28;20578;-65
2022/04/13 04:04:29;;;;;;;6.93;6.15;;;;;;;;;;10261519;28;20077;-65
2022/04/13 04:09:28;;;;;;;12.55;5.35;;;;;;;;;;10260960;28;20099;-65
2022/04/13 04:14:26;;;;;;;9.23;5.60;;;;;;;;;;10261482;28;20081;-65
2022/04/13 04:19:24;;;;;;;6.35;5.50;;;;;;;;;;10267520;28;20475;-64
2022/04/13 04:24:24;;;;;;;7.45;6.13;;;;;;;;;;10260728;28;20087;-64
2022/04/13 04:29:23;;;;;;;9.60;5.85;;;;;;;;;;10267052;28;20076;-64
2022/04/13 04:34:22;;;;;;;9.20;5.57;;;;;;;;;;10260360;28;20076;-64
2022/04/13 04:39:20;;;;;;;8.10;4.88;;;;;;;;;;10266585;28;20068;-64
2022/04/13 04:44:20;;;;;;;8.60;5.38;;;;;;;;;;10260993;28;20084;-64
2022/04/13 04:49:18;;;;;;;9.90;5.43;;;;;;;;;;10273532;28;20061;-64
2022/04/13 04:54:16;;;;;;;6.63;4.60;;;;;;;;;;10272187;28;20068;-64
2022/04/13 04:59:15;;;;;;;7.80;4.43;;;;;;;;;;10260355;28;20072;-64
2022/04/13 05:04:15;;;;;;;6.95;4.50;;;;;;;;;;10262906;28;20076;-65
2022/04/13 05:09:17;;;;;;;5.55;4.30;;;;;;;;;;10267061;28;20064;-66
2022/04/13 05:14:18;;;;;;;6.40;5.55;;;;;;;;;;10266024;28;20064;-64
2022/04/13 05:19:18;;;;;;;5.93;5.30;;;;;;;;;;10266043;28;20111;-65
2022/04/13 05:24:16;;;;;;;5.95;4.85;;;;;;;;;;10263202;28;20072;-64
2022/04/13 05:29:14;;;;;;;6.53;4.45;;;;;;;;;;10244458;28;20502;-64
2022/04/13 05:34:13;;;;;;;7.03;4.80;;;;;;;;;;10238520;28;20076;-64
2022/04/13 05:39:12;;;;;;;14.40;9.05;;;;;;;;;;10263537;28;20549;-63
2022/04/13 05:44:10;;;;;;;18.83;10.63;;;;;;;;;;10270934;28;20088;-64
2022/04/13 05:49:09;;;;;;;7.32;5.10;;;;;;;;;;10260459;28;20076;-64
2022/04/13 05:54:07;;;;;;;6.00;4.68;;;;;;;;;;10265401;28;20140;-64
2022/04/13 05:59:07;;;;;;;11.18;4.35;;;;;;;;;;10264716;28;20068;-64
2022/04/13 06:04:05;;;;;;;7.43;4.93;;;;;;;;;;10263878;28;20068;-64
2022/04/13 06:09:03;;;;;;;5.82;4.07;;;;;;;;;;10263100;28;20033;-64
2022/04/13 06:14:02;;;;;;;5.90;4.93;;;;;;;;;;10263030;28;20107;-65
2022/04/13 06:19:01;;;;;;;6.10;4.05;;;;;;;;;;10252963;28;20156;-65
2022/04/13 06:24:00;;;;;;;4.10;3.70;;;;;;;;;;10256800;28;20079;-65
2022/04/13 06:28:58;;;;;;;5.05;3.63;;;;;;;;;;10266351;28;20085;-65
2022/04/13 06:33:56;;;;;;;5.88;3.80;;;;;;;;;;10268301;28;20079;-64
2022/04/13 06:38:56;;;;;;;7.85;4.40;;;;;;;;;;10269765;28;20076;-63
2022/04/13 06:43:55;;;;;;;8.15;4.55;;;;;;;;;;10269633;28;20076;-64
2022/04/13 06:48:53;;;;;;;5.88;4.32;;;;;;;;;;10269113;28;20080;-65
2022/04/13 06:53:51;;;;;;;6.38;3.75;;;;;;;;;;10255991;28;20073;-64
2022/04/13 06:58:51;;;;;;;4.35;3.72;;;;;;;;;;10266594;28;20532;-63
2022/04/13 07:03:49;;;;;;;4.85;3.58;;;;;;;;;;10266771;28;20064;-64
2022/04/13 07:08:47;;;;;;;4.43;3.45;;;;;;;;;;10263564;28;20084;-65
2022/04/13 07:13:46;;;;;;;5.88;4.00;;;;;;;;;;10265868;28;20060;-65
2022/04/13 07:18:45;;;;;;;8.05;4.00;;;;;;;;;;10269599;28;20083;-63
2022/04/13 07:23:43;;;;;;;4.88;4.43;;;;;;;;;;10266427;28;20078;-64
2022/04/13 07:28:42;;;;;;;4.70;3.55;;;;;;;;;;10261030;28;20088;-65
2022/04/13 07:33:41;;;;;;;5.35;3.08;;;;;;;;;;10260035;28;20552;-65
2022/04/13 07:38:40;;;;;;;6.97;4.60;;;;;;;;;;10267287;28;20501;-65
2022/04/13 07:43:39;;;;;;;6.75;4.30;;;;;;;;;;10266258;28;20083;-63
2022/04/13 07:48:37;;;;;;;3.90;3.45;;;;;;;;;;10267125;28;20095;-64
2022/04/13 07:53:35;;;;;;;4.20;3.20;;;;;;;;;;10265070;28;20037;-63
2022/04/13 07:58:35;;;;;;;7.03;3.50;;;;;;;;;;10266553;28;20072;-63
2022/04/13 08:03:33;;;;;;;4.97;3.85;;;;;;;;;;10259331;28;20525;-64
2022/04/13 08:08:32;;;;;;;5.35;3.58;;;;;;;;;;10270280;28;20076;-64
2022/04/13 08:13:31;;;;;;;4.15;3.40;;;;;;;;;;10263776;28;20049;-64
2022/04/13 08:18:51;;;;;;;5.68;3.45;;;;;;;;;;10265102;28;20517;-65
2022/04/13 08:23:49;;;;;;;6.13;3.45;;;;;;;;;;10263928;28;20087;-64
2022/04/13 08:28:48;;;;;;;5.00;3.10;;;;;;;;;;10265337;28;20072;-64
2022/04/13 08:33:46;;;;;;;5.65;3.55;;;;;;;;;;10259614;28;20559;-63
2022/04/13 08:38:46;;;;;;;5.45;3.67;;;;;;;;;;10247097;28;20512;-64
2022/04/13 08:43:48;;;;;;;7.63;3.83;;;;;;;;;;10264402;28;20080;-65
2022/04/13 08:48:46;;;;;;;6.30;3.47;;;;;;;;;;10266512;28;20068;-63
2022/04/13 08:53:48;;;;;;;4.10;3.60;;;;;;;;;;10251526;28;20057;-64
2022/04/13 08:58:51;;;;;;;4.10;3.35;;;;;;;;;;10262125;28;20072;-64
2022/04/13 09:03:51;;;;;;;6.00;3.80;;;;;;;;;;10255975;28;20072;-64
2022/04/13 09:08:53;;;;;;;3.83;3.40;;;;;;;;;;10259354;28;20091;-64
2022/04/13 09:13:51;;;;;;;4.30;2.83;;;;;;;;;;10262781;28;20106;-64
2022/04/13 09:18:50;;;;;;;3.95;3.55;;;;;;;;;;10270533;28;20088;-66
2022/04/13 09:23:48;;;;;;;3.85;3.25;;;;;;;;;;10270376;28;20068;-66
2022/04/13 09:28:47;;;;;;;4.80;3.17;;;;;;;;;;10260001;28;20076;-65
2022/04/13 09:33:46;;;;;;;5.47;3.72;;;;;;;;;;10263936;28;20518;-65
2022/04/13 09:38:54;;;;;;;5.10;3.40;;;;;;;;;;10264026;28;20087;-64
2022/04/13 09:43:55;;;;;;;10.32;8.25;;;;;;;;;;10263785;28;20095;-65
2022/04/13 09:49:07;;;;;;;4.45;3.35;;;;;;;;;;10269106;28;20171;-65
2022/04/13 09:54:07;;;;;;;3.63;3.30;;;;;;;;;;10264133;28;20091;-64
2022/04/13 09:59:07;;;;;;;6.20;3.25;;;;;;;;;;10267431;28;20076;-65
2022/04/13 10:04:07;;;;;;;4.55;3.42;;;;;;;;;;10267214;28;20069;-64
2022/04/13 10:09:10;;;;;;;;;;;;;;;;;;10267249;28;20087;-65
2022/04/13 10:14:10;;;;;;;5.18;3.42;;;;;;;;;;10260346;28;19986;-65
2022/04/13 10:19:08;;;;;;;5.72;3.00;;;;;;;;;;10260973;28;20498;-64
2022/04/13 10:24:07;;;;;;;5.57;3.92;;;;;;;;;;10270504;28;20075;-65
2022/04/13 10:29:15;;;;;;;4.97;3.92;;;;;;;;;;10270427;28;20072;-64
2022/04/13 10:34:13;;;;;;;5.38;3.50;;;;;;;;;;10269481;28;20079;-65
2022/04/13 10:39:12;;;;;;;7.05;4.05;;;;;;;;;;10268029;28;20076;-64
2022/04/13 10:44:10;;;;;;;5.78;3.20;;;;;;;;;;10263079;28;20103;-65
2022/04/13 10:49:14;;;;;;;3.80;3.40;;;;;;;;;;10262368;28;20069;-64
2022/04/13 10:54:14;;;;;;;6.05;3.42;;;;;;;;;;10268073;28;20064;-64
2022/04/13 10:59:16;;;;;;;4.55;3.95;;;;;;;;;;10268533;28;20170;-64
2022/04/13 11:04:16;;;;;;;4.80;3.45;;;;;;;;;;10262902;28;20052;-65
2022/04/13 11:09:21;;;;;;;7.28;4.05;;;;;;;;;;10268491;28;20080;-65
2022/04/13 11:14:20;;;;;;;3.67;3.08;;;;;;;;;;10265144;28;20072;-65
2022/04/13 11:19:21;;;;;;;10.10;5.30;;;;;;;;;;10251773;28;20108;-65
2022/04/13 11:24:31;;;;;;;5.47;3.63;;;;;;;;;;10267626;28;20080;-65
2022/04/13 11:29:33;;;;;;;4.00;3.20;;;;;;;;;;10266893;28;20073;-65
2022/04/13 11:34:37;;;;;;;3.30;2.75;;;;;;;;;;10267011;28;20076;-65
2022/04/13 11:39:44;;;;;;;6.05;3.15;;;;;;;;;;10266485;28;20079;-64
2022/04/13 11:44:49;;;;;;;7.70;4.57;;;;;;;;;;10266943;28;20117;-65
2022/04/13 11:50:02;;;;;;;7.90;4.45;;;;;;;;;;10267411;28;20151;-65
2022/04/13 11:55:00;;;;;;;6.88;5.13;;;;;;;;;;10267752;28;20072;-65
2022/04/13 11:59:58;;;;;;;6.03;4.22;;;;;;;;;;10266927;28;20080;-65
2022/04/13 12:05:06;;;;;;;7.78;4.03;;;;;;;;;;10259281;28;20073;-65
2022/04/13 12:10:05;;;;;;;6.35;4.03;;;;;;;;;;10260411;28;20076;-64
2022/04/13 12:15:03;;;;;;;5.05;3.60;;;;;;;;;;10262447;28;20068;-65
2022/04/13 12:20:03;;;;;;;4.07;3.15;;;;;;;;;;10265333;28;20556;-65
2022/04/13 12:25:03;;;;;;;4.30;3.22;;;;;;;;;;10258668;28;20069;-65
2022/04/13 12:30:11;;;;;;;4.97;3.67;;;;;;;;;;10265466;28;20080;-67
2022/04/13 12:35:11;;;;;;;5.03;3.35;;;;;;;;;;10260035;28;20076;-65
2022/04/13 12:40:19;;;;;;;6.53;4.40;;;;;;;;;;10264596;28;20135;-66
2022/04/13 12:45:17;;;;;;;36.15;6.13;;;;;;;;;;10264806;28;20085;-65
2022/04/13 12:50:17;;;;;;;7.50;3.20;;;;;;;;;;10255976;28;20076;-65
2022/04/13 12:55:16;;;;;;;8.00;3.42;;;;;;;;;;10265138;28;20091;-65
2022/04/13 13:00:43;;;;;;;7.90;6.15;;;;;;;;;;10273773;28;20075;-65
2022/04/13 13:05:43;;;;;;;4.95;3.45;;;;;;;;;;10266559;28;20085;-66
2022/04/13 13:10:43;;;;;;;4.32;3.22;;;;;;;;;;10271948;28;20076;-65
2022/04/13 13:15:42;;;;;;;8.45;3.83;;;;;;;;;;10263374;28;20533;-65
2022/04/13 13:20:54;;;;;;;4.38;2.70;;;;;;;;;;10263471;28;20068;-65
2022/04/13 13:25:53;;;;;;;4.35;3.08;;;;;;;;;;10262552;28;20069;-65
2022/04/13 13:30:52;;;;;;;4.65;3.13;;;;;;;;;;10263611;28;20080;-65
2022/04/13 13:35:50;;;;;;;3.72;3.10;;;;;;;;;;10264085;28;20044;-65
2022/04/13 13:40:50;;;;;;;5.57;3.90;;;;;;;;;;10263713;28;20076;-65
2022/04/13 13:45:50;;;;;;;3.83;2.80;;;;;;;;;;10261365;28;20056;-66
2022/04/13 13:50:51;;;;;;;17.15;4.65;;;;;;;;;;10265242;28;20530;-66
2022/04/13 13:55:52;;;;;;;5.47;4.13;;;;;;;;;;10264509;28;20502;-65
2022/04/13 14:00:50;;;;;;;5.95;3.78;;;;;;;;;;10265203;28;20069;-64
2022/04/13 14:05:51;;;;;;;3.78;3.00;;;;;;;;;;10257584;28;20065;-64
2022/04/13 14:10:51;;;;;;;8.32;4.13;;;;;;;;;;10261169;28;20064;-64
2022/04/13 14:15:49;;;;;;;11.32;5.82;;;;;;;;;;10262084;28;20077;-65
2022/04/13 14:20:47;;;;;;;5.80;4.22;;;;;;;;;;10246142;28;20071;-64
2022/04/13 14:25:46;;;;;;;74.57;9.82;;;;;;;;;;10263720;28;20073;-64
2022/04/13 14:30:46;;;;;;;4.47;3.63;;;;;;;;;;10262299;28;20080;-64
2022/04/13 14:35:44;;;;;;;5.18;3.05;;;;;;;;;;10267087;28;20079;-65
2022/04/13 14:40:42;;;;;;;9.50;5.35;;;;;;;;;;10270121;28;20449;-64
2022/04/13 14:45:44;;;;;;;5.82;4.45;;;;;;;;;;10263641;28;20435;-65
2022/04/13 14:50:46;;;;;;;6.60;5.03;;;;;;;;;;10269506;28;20572;-65
2022/04/13 14:55:45;;;;;;;9.30;5.65;;;;;;;;;;10269163;28;20113;-65
2022/04/13 15:00:44;;;;;;;3.90;3.00;;;;;;;;;;10269123;28;20076;-65
2022/04/13 15:05:44;;;;;;;4.28;3.88;;;;;;;;;;10269029;28;20075;-65
2022/04/13 15:10:42;;;;;;;6.10;3.88;;;;;;;;;;10268929;28;20080;-66
2022/04/13 15:15:41;;;;;;;3.70;3.28;;;;;;;;;;10268541;28;20080;-64
2022/04/13 15:20:39;;;;;;;6.85;4.82;;;;;;;;;;10268513;28;20075;-64
2022/04/13 15:25:39;;;;;;;6.15;4.38;;;;;;;;;;10268347;28;20404;-65
2022/04/13 15:30:38;;;;;;;7.15;4.28;;;;;;;;;;10268002;28;20087;-65
2022/04/13 15:35:37;;;;;;;4.70;3.42;;;;;;;;;;10267128;28;20064;-65
2022/04/13 15:40:35;;;;;;;3.20;2.90;;;;;;;;;;10268070;28;20084;-65
2022/04/13 15:45:35;;;;;;;9.55;5.93;;;;;;;;;;10265142;28;20071;-65
2022/04/13 15:50:39;;;;;;;11.18;5.63;;;;;;;;;;10266948;28;20080;-64
2022/04/13 15:55:38;;;;;;;9.63;5.93;;;;;;;;;;10266687;28;20072;-64
2022/04/13 16:00:38;;;;;;;5.88;4.32;;;;;;;;;;10266216;28;20083;-65
2022/04/13 16:05:37;;;;;;;11.95;7.05;;;;;;;;;;10267306;28;20045;-64
2022/04/13 16:10:36;;;;;;;5.32;4.22;;;;;;;;;;10266090;28;20083;-64
2022/04/13 16:15:34;;;;;;;5.55;3.97;;;;;;;;;;10266153;28;20075;-64
2022/04/13 16:20:34;;;;;;;7.22;4.90;;;;;;;;;;10266414;28;20514;-65
2022/04/13 16:25:32;;;;;;;22.10;16.58;;;;;;;;;;10266339;28;20495;-65
2022/04/13 16:30:31;;;;;;;62.78;36.63;;;;;;;;;;10266004;28;20077;-66
2022/04/13 16:35:29;;;;;;;16.73;11.02;;;;;;;;;;10266028;28;20520;-65
2022/04/13 16:40:29;;;;;;;62.40;42.65;;;;;;;;;;10265648;28;20481;-66
2022/04/13 16:45:47;;;;;;;20.67;14.50;;;;;;;;;;10266131;28;20128;-66
2022/04/13 16:50:46;;;;;;;22.15;16.60;;;;;;;;;;10263986;28;20080;-66
2022/04/13 16:55:45;;;;;;;32.42;29.08;;;;;;;;;;10265010;28;20072;-66
2022/04/13 17:00:45;;;;;;;36.72;32.97;;;;;;;;;;10260483;28;20443;-65
2022/04/13 17:05:43;;;;;;;34.08;27.08;;;;;;;;;;10260697;28;20517;-65
2022/04/13 17:10:41;;;;;;;24.20;17.77;;;;;;;;;;10251406;28;20092;-64
2022/04/13 17:15:41;;;;;;;8.25;5.57;;;;;;;;;;10263788;28;20064;-65
2022/04/13 17:20:40;;;;;;;7.40;6.10;;;;;;;;;;10262752;28;20107;-67
2022/04/13 17:25:39;;;;;;;14.05;8.80;;;;;;;;;;10264459;28;20355;-65
2022/04/13 17:30:37;;;;;;;6.68;5.35;;;;;;;;;;10259843;28;20085;-65
2022/04/13 17:35:37;;;;;;;5.85;4.35;;;;;;;;;;10264162;28;20072;-65
2022/04/13 17:40:36;;;;;;;7.68;6.57;;;;;;;;;;10264061;28;20045;-65
2022/04/13 17:45:34;;;;;;;7.35;5.53;;;;;;;;;;10264204;28;20542;-65
2022/04/13 17:50:38;;;;;;;5.38;3.50;;;;;;;;;;10264321;28;20084;-65
2022/04/13 17:55:39;;;;;;;6.32;4.38;;;;;;;;;;10263970;28;20069;-66
2022/04/13 18:00:37;;;;;;;45.03;7.22;;;;;;;;;;10264263;28;20044;-65
2022/04/13 18:05:36;;;;;;;15.23;5.47;;;;;;;;;;10264025;28;20072;-65
2022/04/13 18:10:35;;;;;;;7.05;3.90;;;;;;;;;;10271201;28;20076;-66
2022/04/13 18:15:38;;;;;;;3.53;3.17;;;;;;;;;;10280533;28;20075;-65
2022/04/13 18:20:37;;;;;;;5.13;3.72;;;;;;;;;;10279466;28;20080;-64
2022/04/13 18:25:37;;;;;;;7.95;3.50;;;;;;;;;;10286209;28;20087;-65
2022/04/13 18:30:35;;;;;;;4.22;3.00;;;;;;;;;;10279130;28;20080;-64
2022/04/13 18:35:35;;;;;;;5.00;3.53;;;;;;;;;;10273192;28;20068;-65
2022/04/13 18:40:33;;;;;;;6.53;4.30;;;;;;;;;;10279519;28;20056;-65
2022/04/13 18:45:32;;;;;;;6.00;3.55;;;;;;;;;;10279221;28;20041;-65
2022/04/13 18:50:30;;;;;;;4.90;3.90;;;;;;;;;;10256047;28;20331;-67
2022/04/13 18:55:31;;;;;;;6.20;2.95;;;;;;;;;;10273807;28;20072;-66
2022/04/13 19:00:30;;;;;;;3.60;2.80;;;;;;;;;;10269662;28;20072;-66
2022/04/13 19:05:28;;;;;;;3.72;3.03;;;;;;;;;;10261971;28;20074;-66
2022/04/13 19:10:27;;;;;;;3.75;3.28;;;;;;;;;;10267301;28;20090;-66
2022/04/13 19:15:26;;;;;;;3.97;2.95;;;;;;;;;;10272597;28;20434;-66
2022/04/13 19:20:26;;;;;;;4.20;2.80;;;;;;;;;;10276884;28;20506;-66
2022/04/13 19:25:24;;;;;;;4.05;2.83;;;;;;;;;;10269843;28;20044;-66
2022/04/13 19:30:23;;;;;;;3.60;2.53;;;;;;;;;;10268098;28;20174;-66
2022/04/13 19:35:22;;;;;;;4.63;2.97;;;;;;;;;;10278198;28;20049;-65
2022/04/13 19:40:21;;;;;;;5.25;3.08;;;;;;;;;;10266612;28;20080;-66
2022/04/13 19:45:19;;;;;;;3.97;3.28;;;;;;;;;;10270923;28;20080;-65
2022/04/13 19:50:17;;;;;;;3.70;2.92;;;;;;;;;;10255110;28;20075;-65
2022/04/13 19:55:17;;;;;;;3.85;3.28;;;;;;;;;;10261221;28;20073;-65
2022/04/13 20:00:17;;;;;;;3.22;2.70;;;;;;;;;;10271126;28;20072;-65
2022/04/13 20:05:16;;;;;;;6.35;3.42;;;;;;;;;;10264331;28;20076;-64
2022/04/13 20:10:14;;;;;;;4.07;2.95;;;;;;;;;;10267013;28;20080;-64
2022/04/13 20:15:13;;;;;;;4.57;2.90;;;;;;;;;;10265846;28;20056;-63
2022/04/13 20:20:12;;;;;;;3.50;2.90;;;;;;;;;;10266764;28;20273;-64
2022/04/13 20:25:10;;;;;;;3.22;2.92;;;;;;;;;;10274198;28;20529;-65
2022/04/13 20:30:09;;;;;;;3.78;2.80;;;;;;;;;;10273408;28;20076;-65
2022/04/13 20:35:09;;;;;;;4.43;3.05;;;;;;;;;;10261379;28;20071;-64
2022/04/13 20:40:08;;;;;;;5.22;3.55;;;;;;;;;;10265929;28;20076;-64
2022/04/13 20:45:07;;;;;;;3.95;2.80;;;;;;;;;;10267111;28;20069;-64
2022/04/13 20:50:06;;;;;;;5.85;3.17;;;;;;;;;;10264681;28;20075;-64
2022/04/13 20:55:07;;;;;;;9.43;3.20;;;;;;;;;;10259068;28;20537;-64
2022/04/13 21:00:06;;;;;;;5.80;3.22;;;;;;;;;;10258811;28;20528;-65
2022/04/13 21:05:05;;;;;;;4.18;3.63;;;;;;;;;;10267156;28;20064;-65
2022/04/13 21:10:04;;;;;;;4.80;3.47;;;;;;;;;;10263961;28;20076;-66
2022/04/13 21:15:04;;;;;;;4.53;3.63;;;;;;;;;;10268086;28;20524;-65
2022/04/13 21:20:02;;;;;;;6.40;4.13;;;;;;;;;;10268223;28;20336;-65
2022/04/13 21:25:06;;;;;;;4.27;3.10;;;;;;;;;;10272920;28;20059;-65
2022/04/13 21:30:07;;;;;;;3.67;2.60;;;;;;;;;;10280821;28;20080;-66
2022/04/13 21:35:05;;;;;;;4.57;2.92;;;;;;;;;;10273673;28;20041;-65
2022/04/13 21:40:11;;;;;;;3.13;2.75;;;;;;;;;;10265133;28;20080;-65
2022/04/13 21:45:11;;;;;;;11.52;4.40;;;;;;;;;;10271443;28;20077;-65
2022/04/13 21:50:09;;;;;;;4.13;3.42;;;;;;;;;;10262546;28;20087;-65
2022/04/13 21:55:08;;;;;;;4.00;3.50;;;;;;;;;;10271143;28;20080;-65
2022/04/13 22:00:07;;;;;;;6.78;3.67;;;;;;;;;;10271018;28;20637;-65
2022/04/13 22:05:10;;;;;;;6.18;3.80;;;;;;;;;;10274774;28;20083;-64
2022/04/13 22:10:08;;;;;;;5.75;3.75;;;;;;;;;;10271009;28;20080;-65
2022/04/13 22:15:07;;;;;;;4.15;3.63;;;;;;;;;;10270257;28;20577;-64
2022/04/13 22:20:06;;;;;;;5.07;3.58;;;;;;;;;;10267869;28;20115;-64
2022/04/13 22:25:07;;;;;;;4.80;3.45;;;;;;;;;;10280672;28;20041;-65
2022/04/13 22:30:06;;;;;;;4.93;3.50;;;;;;;;;;10285509;28;20084;-64
2022/04/13 22:35:05;;;;;;;4.28;3.63;;;;;;;;;;10279252;28;20552;-64
2022/04/13 22:40:03;;;;;;;5.18;3.85;;;;;;;;;;10271150;28;20088;-64
2022/04/13 22:45:03;;;;;;;5.10;3.60;;;;;;;;;;10274239;28;20125;-65
2022/04/13 22:50:02;;;;;;;3.90;3.50;;;;;;;;;;10261390;28;20068;-64
2022/04/13 22:55:00;;;;;;;6.45;3.67;;;;;;;;;;10262074;28;20481;-65
2022/04/13 22:59:58;;;;;;;3.90;3.50;;;;;;;;;;10262755;28;20505;-65
2022/04/13 23:04:58;;;;;;;4.45;3.60;;;;;;;;;;10268536;28;20048;-65
2022/04/13 23:09:57;;;;;;;4.93;3.72;;;;;;;;;;10268123;28;20444;-65
2022/04/13 23:14:56;;;;;;;4.50;3.88;;;;;;;;;;10268110;28;20072;-65
2022/04/13 23:19:55;;;;;;;4.65;3.63;;;;;;;;;;10270053;28;20056;-65
2022/04/13 23:24:55;;;;;;;4.25;3.80;;;;;;;;;;10271435;28;20057;-65
2022/04/13 23:29:56;;;;;;;3.85;3.42;;;;;;;;;;10268227;28;20087;-65
2022/04/13 23:34:54;;;;;;;11.90;5.93;;;;;;;;;;10265853;28;20077;-65
2022/04/13 23:39:53;;;;;;;6.10;4.90;;;;;;;;;;10268234;28;20536;-65
2022/04/13 23:44:52;;;;;;;7.50;5.68;;;;;;;;;;10268642;28;20092;-64
2022/04/13 23:49:50;;;;;;;8.98;6.22;;;;;;;;;;10267930;28;20084;-65
2022/04/13 23:54:49;;;;;;;7.43;5.20;;;;;;;;;;10266657;28;20083;-66
2022/04/13 23:59:47;;;;;;;5.28;4.45;;;;;;;;;;10267365;28;20452;-65
